createdAt,value
2018-09-01T00:00:02.186Z,16.50
2018-09-01T00:01:06.142Z,14.07
2018-09-01T00:02:09.825Z,14.87
2018-09-01T00:03:13.125Z,12.00
2018-09-01T00:04:16.492Z,17.40
2018-09-01T00:05:20.069Z,18.60
2018-09-01T00:06:23.400Z,15.53
2018-09-01T00:07:26.875Z,14.50
2018-09-01T00:08:30.244Z,14.20
2018-09-01T00:09:35.448Z,11.17
2018-09-01T00:10:38.867Z,15.57
2018-09-01T00:11:42.479Z,18.13
2018-09-01T00:12:46.189Z,13.43
2018-09-01T00:13:49.524Z,16.43
2018-09-01T00:14:53.058Z,16.97
2018-09-01T00:15:57.015Z,13.50
2018-09-01T00:17:00.548Z,11.63
2018-09-01T00:18:03.900Z,13.47
2018-09-01T00:19:07.357Z,12.97
2018-09-01T00:20:10.849Z,14.27
2018-09-01T00:21:14.299Z,11.93
2018-09-01T00:22:17.648Z,15.67
2018-09-01T00:23:21.048Z,15.23
2018-09-01T00:24:24.444Z,8.70
2018-09-01T00:25:27.867Z,15.53
2018-09-01T00:26:31.307Z,12.77
2018-09-01T00:27:34.717Z,15.20
2018-09-01T00:28:38.116Z,13.30
2018-09-01T00:29:41.559Z,15.33
2018-09-01T00:30:45.150Z,13.90
2018-09-01T00:31:48.439Z,16.80
2018-09-01T00:32:51.835Z,15.10
2018-09-01T00:33:55.272Z,13.37
2018-09-01T00:34:58.626Z,18.67
2018-09-01T00:36:02.154Z,15.10
2018-09-01T00:37:05.742Z,15.33
2018-09-01T00:38:14.730Z,12.93
2018-09-01T00:39:18.123Z,20.63
2018-09-01T00:40:26.083Z,11.17
2018-09-01T00:41:29.868Z,15.77
2018-09-01T00:42:33.443Z,16.20
2018-09-01T00:43:37.219Z,9.80
2018-09-01T00:44:40.952Z,13.70
2018-09-01T00:45:44.523Z,13.63
2018-09-01T00:46:48.034Z,14.10
2018-09-01T00:47:51.428Z,13.23
2018-09-01T00:48:54.980Z,12.30
2018-09-01T00:49:58.488Z,11.67
2018-09-01T00:51:02.090Z,14.80
2018-09-01T00:52:05.536Z,18.53
2018-09-01T00:53:09.281Z,19.83
2018-09-01T00:54:12.643Z,17.00
2018-09-01T00:55:21.885Z,22.33
2018-09-01T00:56:25.357Z,15.30
2018-09-01T00:57:29.027Z,15.70
2018-09-01T00:58:32.507Z,11.23
2018-09-01T00:59:36.034Z,16.63
2018-09-01T01:00:39.453Z,12.60
2018-09-01T01:01:42.886Z,18.33
2018-09-01T01:02:46.243Z,15.07
2018-09-01T01:03:49.852Z,16.83
2018-09-01T01:04:53.361Z,16.77
2018-09-01T01:05:57.348Z,15.23
2018-09-01T01:07:00.763Z,15.70
2018-09-01T01:08:04.443Z,13.10
2018-09-01T01:09:08.045Z,18.47
2018-09-01T01:10:11.533Z,21.80
2018-09-01T01:11:16.969Z,19.87
2018-09-01T01:12:20.340Z,11.73
2018-09-01T01:13:23.803Z,10.23
2018-09-01T01:14:27.676Z,12.87
2018-09-01T01:15:31.127Z,17.57
2018-09-01T01:16:34.727Z,15.13
2018-09-01T01:17:38.322Z,13.13
2018-09-01T01:18:41.792Z,11.87
2018-09-01T01:19:45.647Z,17.77
2018-09-01T01:20:49.183Z,14.47
2018-09-01T01:21:52.525Z,17.33
2018-09-01T01:22:56.100Z,13.77
2018-09-01T01:23:59.712Z,17.67
2018-09-01T01:25:03.941Z,14.83
2018-09-01T01:26:07.988Z,14.10
2018-09-01T01:27:11.480Z,12.40
2018-09-01T01:28:14.983Z,11.60
2018-09-01T01:29:18.523Z,18.27
2018-09-01T01:30:22.109Z,15.23
2018-09-01T01:31:25.883Z,11.37
2018-09-01T01:32:29.458Z,15.37
2018-09-01T01:33:33.064Z,11.13
2018-09-01T01:34:36.464Z,15.17
2018-09-01T01:35:39.858Z,13.37
2018-09-01T01:36:43.301Z,16.07
2018-09-01T01:37:46.814Z,17.33
2018-09-01T01:38:50.447Z,15.83
2018-09-01T01:39:53.948Z,16.43
2018-09-01T01:40:57.334Z,18.37
2018-09-01T01:42:00.918Z,13.90
2018-09-01T01:43:04.538Z,16.63
2018-09-01T01:44:07.893Z,14.80
2018-09-01T01:45:11.353Z,11.63
2018-09-01T01:46:15.027Z,14.67
2018-09-01T01:47:18.385Z,13.10
2018-09-01T01:48:21.678Z,13.00
2018-09-01T01:49:25.219Z,14.10
2018-09-01T01:50:28.559Z,14.60
2018-09-01T01:51:32.082Z,13.73
2018-09-01T01:52:35.407Z,14.23
2018-09-01T01:53:38.744Z,14.30
2018-09-01T01:54:42.266Z,12.67
2018-09-01T01:55:45.552Z,15.80
2018-09-01T01:56:49.013Z,18.43
2018-09-01T01:57:52.537Z,13.67
2018-09-01T01:58:55.928Z,17.13
2018-09-01T01:59:59.537Z,20.07
2018-09-01T02:01:03.038Z,15.63
2018-09-01T02:02:06.503Z,12.73
2018-09-01T02:03:09.981Z,16.50
2018-09-01T02:04:13.735Z,12.30
2018-09-01T02:05:20.355Z,17.47
2018-09-01T02:06:25.072Z,11.77
2018-09-01T02:07:28.449Z,15.87
2018-09-01T02:08:31.783Z,15.33
2018-09-01T02:09:35.248Z,13.13
2018-09-01T02:10:38.699Z,20.03
2018-09-01T02:11:42.241Z,17.07
2018-09-01T02:12:45.583Z,19.80
2018-09-01T02:13:48.986Z,18.27
2018-09-01T02:14:52.434Z,21.60
2018-09-01T02:15:55.913Z,15.93
2018-09-01T02:16:59.329Z,14.30
2018-09-01T02:18:02.726Z,15.27
2018-09-01T02:19:06.594Z,17.23
2018-09-01T02:20:09.595Z,15.07
2018-09-01T02:21:13.167Z,14.10
2018-09-01T02:22:16.538Z,12.47
2018-09-01T02:23:20.079Z,17.90
2018-09-01T02:24:23.461Z,15.97
2018-09-01T02:25:26.881Z,12.40
2018-09-01T02:26:30.438Z,19.00
2018-09-01T02:27:34.004Z,10.17
2018-09-01T02:28:37.448Z,18.90
2018-09-01T02:29:40.869Z,15.07
2018-09-01T02:30:44.266Z,10.30
2018-09-01T02:31:47.860Z,14.17
2018-09-01T02:32:51.239Z,23.90
2018-09-01T02:33:54.708Z,16.33
2018-09-01T02:34:58.068Z,15.60
2018-09-01T02:36:01.629Z,16.53
2018-09-01T02:37:05.403Z,18.60
2018-09-01T02:38:08.897Z,14.10
2018-09-01T02:39:12.298Z,12.07
2018-09-01T02:40:15.817Z,16.17
2018-09-01T02:41:19.359Z,12.00
2018-09-01T02:42:22.720Z,13.77
2018-09-01T02:43:26.204Z,20.13
2018-09-01T02:44:29.560Z,13.67
2018-09-01T02:45:32.984Z,17.30
2018-09-01T02:46:36.288Z,14.40
2018-09-01T02:47:39.846Z,13.23
2018-09-01T02:48:43.381Z,12.53
2018-09-01T02:49:46.762Z,16.63
2018-09-01T02:50:50.022Z,12.67
2018-09-01T02:51:53.470Z,18.40
2018-09-01T02:52:56.791Z,15.63
2018-09-01T02:54:00.168Z,14.43
2018-09-01T02:55:03.690Z,14.47
2018-09-01T02:56:07.046Z,15.90
2018-09-01T02:57:10.452Z,13.07
2018-09-01T02:58:14.062Z,11.67
2018-09-01T02:59:17.484Z,16.43
2018-09-01T03:00:26.526Z,15.63
2018-09-01T03:01:34.931Z,14.60
2018-09-01T03:02:43.715Z,13.70
2018-09-01T03:03:47.353Z,14.30
2018-09-01T03:04:50.652Z,15.30
2018-09-01T03:05:54.192Z,19.20
2018-09-01T03:06:58.737Z,13.37
2018-09-01T03:08:03.202Z,16.77
2018-09-01T03:09:06.836Z,12.33
2018-09-01T03:10:10.332Z,16.20
2018-09-01T03:11:13.914Z,14.20
2018-09-01T03:12:17.492Z,11.57
2018-09-01T03:13:20.983Z,11.73
2018-09-01T03:14:25.304Z,15.80
2018-09-01T03:15:28.612Z,14.57
2018-09-01T03:16:31.999Z,18.63
2018-09-01T03:17:35.481Z,13.97
2018-09-01T03:18:38.831Z,13.87
2018-09-01T03:19:42.305Z,13.60
2018-09-01T03:20:45.784Z,15.20
2018-09-01T03:21:49.268Z,13.83
2018-09-01T03:22:52.868Z,16.77
2018-09-01T03:23:56.329Z,14.03
2018-09-01T03:24:59.851Z,12.93
2018-09-01T03:26:03.443Z,14.37
2018-09-01T03:27:06.976Z,12.43
2018-09-01T03:28:10.546Z,21.33
2018-09-01T03:29:14.029Z,17.03
2018-09-01T03:30:17.361Z,12.57
2018-09-01T03:31:20.621Z,14.03
2018-09-01T03:32:24.002Z,13.70
2018-09-01T03:33:27.353Z,18.07
2018-09-01T03:34:30.698Z,16.80
2018-09-01T03:35:34.546Z,11.70
2018-09-01T03:36:37.939Z,12.60
2018-09-01T03:37:41.375Z,13.87
2018-09-01T03:38:44.842Z,14.67
2018-09-01T03:39:48.265Z,15.00
2018-09-01T03:40:51.567Z,13.93
2018-09-01T03:41:55.039Z,18.00
2018-09-01T03:42:58.439Z,21.07
2018-09-01T03:44:01.899Z,19.17
2018-09-01T03:45:05.954Z,14.47
2018-09-01T03:46:09.310Z,12.60
2018-09-01T03:47:12.792Z,17.60
2018-09-01T03:48:16.219Z,14.23
2018-09-01T03:49:19.720Z,19.63
2018-09-01T03:50:23.102Z,20.00
2018-09-01T03:51:27.858Z,14.87
2018-09-01T03:52:31.250Z,17.33
2018-09-01T03:53:34.590Z,12.20
2018-09-01T03:54:38.226Z,15.70
2018-09-01T03:55:41.642Z,12.67
2018-09-01T03:56:44.985Z,13.90
2018-09-01T03:57:48.592Z,13.40
2018-09-01T03:58:52.188Z,17.83
2018-09-01T03:59:55.582Z,14.13
2018-09-01T04:00:59.384Z,16.37
2018-09-01T04:02:02.956Z,16.90
2018-09-01T04:03:06.296Z,14.83
2018-09-01T04:04:09.677Z,20.10
2018-09-01T04:05:13.084Z,17.43
2018-09-01T04:06:16.619Z,16.37
2018-09-01T04:07:20.115Z,15.03
2018-09-01T04:08:23.499Z,18.43
2018-09-01T04:09:27.195Z,19.70
2018-09-01T04:10:30.655Z,17.63
2018-09-01T04:11:34.032Z,18.33
2018-09-01T04:12:37.556Z,20.70
2018-09-01T04:13:40.964Z,16.67
2018-09-01T04:14:44.251Z,17.10
2018-09-01T04:15:47.922Z,19.83
2018-09-01T04:16:51.380Z,20.70
2018-09-01T04:17:54.776Z,19.33
2018-09-01T04:19:02.912Z,21.13
2018-09-01T04:20:06.518Z,15.03
2018-09-01T04:21:09.924Z,16.40
2018-09-01T04:22:13.453Z,16.47
2018-09-01T04:23:16.776Z,14.87
2018-09-01T04:24:20.308Z,13.50
2018-09-01T04:25:24.052Z,20.40
2018-09-01T04:26:27.416Z,16.77
2018-09-01T04:27:31.139Z,16.43
2018-09-01T04:28:34.563Z,18.13
2018-09-01T04:29:37.983Z,18.00
2018-09-01T04:30:41.354Z,15.27
2018-09-01T04:31:45.140Z,19.20
2018-09-01T04:32:48.589Z,15.30
2018-09-01T04:33:52.026Z,14.93
2018-09-01T04:34:55.320Z,14.90
2018-09-01T04:35:58.683Z,16.07
2018-09-01T04:37:02.082Z,14.00
2018-09-01T04:38:05.567Z,17.93
2018-09-01T04:39:10.977Z,15.27
2018-09-01T04:40:14.595Z,17.87
2018-09-01T04:41:18.108Z,19.00
2018-09-01T04:42:21.452Z,17.83
2018-09-01T04:43:24.836Z,15.07
2018-09-01T04:44:28.292Z,18.47
2018-09-01T04:45:31.841Z,13.07
2018-09-01T04:46:35.350Z,18.40
2018-09-01T04:47:38.675Z,18.13
2018-09-01T04:48:42.188Z,20.80
2018-09-01T04:49:45.505Z,19.10
2018-09-01T04:50:48.937Z,14.43
2018-09-01T04:51:52.313Z,15.37
2018-09-01T04:52:55.860Z,14.17
2018-09-01T04:53:59.257Z,17.60
2018-09-01T04:55:02.661Z,17.60
2018-09-01T04:57:09.304Z,14.90
2018-09-01T04:58:12.810Z,20.10
2018-09-01T04:59:16.172Z,17.30
2018-09-01T05:31:47.979Z,25.55
2018-09-01T05:32:51.283Z,29.53
2018-09-01T05:33:54.665Z,24.00
2018-09-01T05:34:58.116Z,25.00
2018-09-01T05:36:01.445Z,32.00
2018-09-01T05:37:05.615Z,23.47
2018-09-01T05:38:09.069Z,22.83
2018-09-01T05:39:12.531Z,31.10
2018-09-01T05:40:16.086Z,23.63
2018-09-01T05:41:19.545Z,25.60
2018-09-01T05:42:22.925Z,33.73
2018-09-01T05:43:26.507Z,29.20
2018-09-01T05:44:29.888Z,31.10
2018-09-01T05:45:33.434Z,29.07
2018-09-01T05:46:36.813Z,27.20
2018-09-01T05:47:40.236Z,28.13
2018-09-01T05:48:43.657Z,27.70
2018-09-01T05:49:47.269Z,38.97
2018-09-01T05:50:50.747Z,26.20
2018-09-01T05:51:54.123Z,34.50
2018-09-01T05:52:57.604Z,38.73
2018-09-01T05:54:01.010Z,32.67
2018-09-01T05:55:04.392Z,36.43
2018-09-01T05:56:07.918Z,31.93
2018-09-01T05:57:11.234Z,36.50
2018-09-01T05:58:14.539Z,33.30
2018-09-01T05:59:18.153Z,37.73
2018-09-01T06:00:22.528Z,33.67
2018-09-01T06:01:25.950Z,32.70
2018-09-01T06:02:29.405Z,33.80
2018-09-01T06:03:32.823Z,38.37
2018-09-01T06:04:36.175Z,36.57
2018-09-01T06:05:40.042Z,33.63
2018-09-01T06:06:43.686Z,29.40
2018-09-01T06:07:47.244Z,30.27
2018-09-01T06:08:50.636Z,32.07
2018-09-01T06:09:53.982Z,35.07
2018-09-01T06:10:57.403Z,43.67
2018-09-01T06:12:01.057Z,38.10
2018-09-01T06:15:10.414Z,34.90
2018-09-01T06:20:25.529Z,29.05
2018-09-01T06:21:29.085Z,30.40
2018-09-01T07:08:49.459Z,27.50
2018-09-01T11:10:13.820Z,2.27
2018-09-01T11:11:17.594Z,5.07
2018-09-01T11:12:21.293Z,5.60
2018-09-01T11:47:00.655Z,3.80
2018-09-01T11:49:07.051Z,3.60
2018-09-01T11:50:10.764Z,5.13
2018-09-01T11:51:14.372Z,2.87
2018-09-01T11:52:18.352Z,4.37
2018-09-01T11:53:22.064Z,4.13
2018-09-01T11:54:25.602Z,4.63
2018-09-01T11:55:29.082Z,3.67
2018-09-01T11:56:32.674Z,4.00
2018-09-01T11:57:36.183Z,3.07
2018-09-01T11:58:39.703Z,3.37
2018-09-01T11:59:43.526Z,3.80
2018-09-01T12:00:47.094Z,2.87
2018-09-01T12:01:50.943Z,3.23
2018-09-01T12:02:54.472Z,3.83
2018-09-01T12:03:58.073Z,5.60
2018-09-01T12:05:01.671Z,5.08
2018-09-01T12:06:05.279Z,5.27
2018-09-01T12:07:09.013Z,2.20
2018-09-01T12:08:12.593Z,5.13
2018-09-01T12:09:16.180Z,3.20
2018-09-01T12:10:19.810Z,3.13
2018-09-01T12:11:24.010Z,4.30
2018-09-01T12:12:27.668Z,2.93
2018-09-01T12:13:31.470Z,3.72
2018-09-01T12:14:34.951Z,4.03
2018-09-01T12:15:38.720Z,4.10
2018-09-01T12:16:42.143Z,7.23
2018-09-01T12:17:45.625Z,6.20
2018-09-01T12:18:49.030Z,8.33
2018-09-01T12:19:52.403Z,5.07
2018-09-01T12:20:55.974Z,5.20
2018-09-01T12:21:59.554Z,9.43
2018-09-01T12:23:03.060Z,3.77
2018-09-01T12:24:06.880Z,2.47
2018-09-01T12:25:10.959Z,4.13
2018-09-01T12:26:14.669Z,3.70
2018-09-01T12:27:18.802Z,4.70
2018-09-01T12:28:22.258Z,6.13
2018-09-01T12:29:26.098Z,8.13
2018-09-01T12:30:29.534Z,8.53
2018-09-01T12:31:33.009Z,4.33
2018-09-01T12:32:36.677Z,3.30
2018-09-01T12:33:40.360Z,3.07
2018-09-01T12:34:43.941Z,4.75
2018-09-01T12:35:47.500Z,3.13
2018-09-01T12:36:51.211Z,3.07
2018-09-01T12:37:54.628Z,2.87
2018-09-01T12:38:58.323Z,5.17
2018-09-01T12:40:01.852Z,4.57
2018-09-01T12:41:05.451Z,6.70
2018-09-01T12:42:09.279Z,3.93
2018-09-01T12:43:12.860Z,4.13
2018-09-01T12:44:16.517Z,5.13
2018-09-01T12:45:20.377Z,4.53
2018-09-01T12:46:23.874Z,5.07
2018-09-01T12:47:27.283Z,4.50
2018-09-01T12:48:31.103Z,3.57
2018-09-01T12:49:34.783Z,3.20
2018-09-01T12:50:38.625Z,3.87
2018-09-01T12:51:42.595Z,3.13
2018-09-01T12:52:46.380Z,3.97
2018-09-01T12:53:49.909Z,4.63
2018-09-01T12:54:53.571Z,4.93
2018-09-01T12:55:57.422Z,4.40
2018-09-01T12:57:00.900Z,2.73
2018-09-01T12:58:04.692Z,5.47
2018-09-01T12:59:08.514Z,3.97
2018-09-01T13:00:12.152Z,3.30
2018-09-01T13:01:15.759Z,3.43
2018-09-01T13:02:20.252Z,2.20
2018-09-01T13:03:23.679Z,2.80
2018-09-01T13:04:27.185Z,2.93
2018-09-01T13:05:30.762Z,5.47
2018-09-01T13:06:34.176Z,4.57
2018-09-01T13:07:37.800Z,3.50
2018-09-01T13:08:41.764Z,2.87
2018-09-01T13:09:45.090Z,3.10
2018-09-01T13:10:48.658Z,6.43
2018-09-01T13:11:52.254Z,3.17
2018-09-01T13:12:55.675Z,4.10
2018-09-01T13:13:59.398Z,3.35
2018-09-01T13:15:02.931Z,4.40
2018-09-01T13:16:06.638Z,3.93
2018-09-01T13:17:10.624Z,3.07
2018-09-01T13:18:14.008Z,5.10
2018-09-01T13:19:17.396Z,3.33
2018-09-01T13:20:20.920Z,3.20
2018-09-01T13:21:24.611Z,3.13
2018-09-01T13:22:28.491Z,2.80
2018-09-01T13:23:32.277Z,4.33
2018-09-01T13:24:35.742Z,4.33
2018-09-01T13:25:39.513Z,4.08
2018-09-01T13:26:43.254Z,2.67
2018-09-01T13:27:46.679Z,4.47
2018-09-01T13:28:50.128Z,2.87
2018-09-01T13:30:00.480Z,3.17
2018-09-01T13:31:04.195Z,4.30
2018-09-01T13:32:07.914Z,4.33
2018-09-01T13:33:11.663Z,4.50
2018-09-01T13:34:15.225Z,4.63
2018-09-01T13:35:18.900Z,2.20
2018-09-01T13:36:22.489Z,2.63
2018-09-01T13:37:25.977Z,5.43
2018-09-01T13:38:29.979Z,3.97
2018-09-01T13:39:33.605Z,6.08
2018-09-01T13:40:37.271Z,3.70
2018-09-01T13:41:40.994Z,4.67
2018-09-01T13:42:44.451Z,2.97
2018-09-01T13:43:47.942Z,3.93
2018-09-01T13:44:51.332Z,2.83
2018-09-01T13:45:54.762Z,5.95
2018-09-01T13:46:58.273Z,4.97
2018-09-01T13:48:01.753Z,3.20
2018-09-01T13:49:05.758Z,6.30
2018-09-01T13:50:09.354Z,6.87
2018-09-01T13:51:13.227Z,2.42
2018-09-01T13:52:16.585Z,3.27
2018-09-01T13:53:20.506Z,3.10
2018-09-01T13:54:24.150Z,3.98
2018-09-01T13:55:27.539Z,2.93
2018-09-01T13:56:31.056Z,3.13
2018-09-01T13:57:35.690Z,5.10
2018-09-01T13:58:39.024Z,4.80
2018-09-01T13:59:42.559Z,3.37
2018-09-01T14:00:46.168Z,4.30
2018-09-01T14:01:49.623Z,3.50
2018-09-01T14:02:53.373Z,3.02
2018-09-01T14:03:56.728Z,3.17
2018-09-01T14:05:00.732Z,3.42
2018-09-01T14:06:04.325Z,5.30
2018-09-01T14:07:08.821Z,2.97
2018-09-01T14:08:12.239Z,3.75
2018-09-01T14:09:15.901Z,3.25
2018-09-01T14:10:19.388Z,3.67
2018-09-01T14:11:22.949Z,3.40
2018-09-01T14:12:26.456Z,3.87
2018-09-01T14:13:30.367Z,3.60
2018-09-01T14:14:33.786Z,3.73
2018-09-01T14:15:37.413Z,4.55
2018-09-01T14:16:40.807Z,3.53
2018-09-01T14:17:44.273Z,3.63
2018-09-01T14:18:47.975Z,3.00
2018-09-01T14:19:51.332Z,3.97
2018-09-01T14:20:54.813Z,4.37
2018-09-01T14:21:58.490Z,3.90
2018-09-01T14:23:01.822Z,4.10
2018-09-01T14:24:05.298Z,4.73
2018-09-01T14:25:08.703Z,2.87
2018-09-01T14:26:12.226Z,3.53
2018-09-01T14:27:15.930Z,3.43
2018-09-01T14:28:19.334Z,3.00
2018-09-01T14:29:22.923Z,3.85
2018-09-01T14:30:26.666Z,4.83
2018-09-01T14:31:30.048Z,3.43
2018-09-01T14:32:33.540Z,2.73
2018-09-01T14:33:37.292Z,5.50
2018-09-01T14:34:40.656Z,4.17
2018-09-01T14:35:44.098Z,2.65
2018-09-01T14:36:47.414Z,2.77
2018-09-01T14:37:50.914Z,3.83
2018-09-01T14:38:54.580Z,2.72
2018-09-01T14:39:58.415Z,3.95
2018-09-01T14:41:01.902Z,4.63
2018-09-01T14:42:05.412Z,5.20
2018-09-01T14:43:08.854Z,4.00
2018-09-01T14:44:12.723Z,5.93
2018-09-01T14:45:16.154Z,3.67
2018-09-01T14:46:19.810Z,6.33
2018-09-01T14:47:23.516Z,2.77
2018-09-01T14:48:26.896Z,4.37
2018-09-01T14:49:30.583Z,3.37
2018-09-01T14:50:33.965Z,3.50
2018-09-01T14:51:37.403Z,5.30
2018-09-01T14:52:41.127Z,3.42
2018-09-01T14:53:44.562Z,3.57
2018-09-01T14:54:47.942Z,4.75
2018-09-01T14:55:51.401Z,3.65
2018-09-01T14:56:54.760Z,3.23
2018-09-01T14:57:58.184Z,8.30
2018-09-01T14:59:01.614Z,3.77
2018-09-01T15:00:06.183Z,4.97
2018-09-01T15:01:09.783Z,5.92
2018-09-01T15:02:13.563Z,5.07
2018-09-01T15:03:17.524Z,4.42
2018-09-01T15:04:21.043Z,2.60
2018-09-01T15:05:24.551Z,4.12
2018-09-01T15:06:28.166Z,4.67
2018-09-01T15:07:31.903Z,2.87
2018-09-01T15:08:35.376Z,4.47
2018-09-01T15:09:39.058Z,4.20
2018-09-01T15:10:42.424Z,4.75
2018-09-01T15:11:45.984Z,3.97
2018-09-01T15:12:49.651Z,4.97
2018-09-01T15:13:53.049Z,4.63
2018-09-01T15:14:56.549Z,3.53
2018-09-01T15:16:00.073Z,4.43
2018-09-01T15:17:03.528Z,4.70
2018-09-01T15:18:07.024Z,2.58
2018-09-01T15:19:10.866Z,2.53
2018-09-01T15:20:14.313Z,6.93
2018-09-01T15:21:17.940Z,5.05
2018-09-01T15:22:21.277Z,3.53
2018-09-01T15:23:25.352Z,3.58
2018-09-01T15:24:28.944Z,5.30
2018-09-01T15:25:32.466Z,5.57
2018-09-01T15:26:36.292Z,3.73
2018-09-01T15:27:39.768Z,3.57
2018-09-01T15:28:43.135Z,4.73
2018-09-01T15:29:46.681Z,3.57
2018-09-01T15:30:50.040Z,6.12
2018-09-01T15:31:53.521Z,3.57
2018-09-01T15:32:57.112Z,4.42
2018-09-01T15:34:00.674Z,4.53
2018-09-01T15:35:04.830Z,4.03
2018-09-01T15:36:08.415Z,3.77
2018-09-01T15:37:12.057Z,2.50
2018-09-01T15:38:15.677Z,6.47
2018-09-01T15:39:19.152Z,4.15
2018-09-01T15:40:22.539Z,3.83
2018-09-01T15:41:26.246Z,3.67
2018-09-01T15:42:29.603Z,5.00
2018-09-01T15:43:33.012Z,4.20
2018-09-01T15:44:36.538Z,3.77
2018-09-01T15:45:39.932Z,3.47
2018-09-01T15:46:43.373Z,4.10
2018-09-01T15:47:46.902Z,3.90
2018-09-01T15:48:50.334Z,5.35
2018-09-01T15:49:53.977Z,4.93
2018-09-01T15:52:11.766Z,8.50
2018-09-01T15:53:15.174Z,4.00
2018-09-01T15:54:18.599Z,7.50
2018-09-01T15:55:22.109Z,7.80
2018-09-01T15:56:25.572Z,5.93
2018-09-01T15:57:28.996Z,4.37
2018-09-01T15:58:32.637Z,6.80
2018-09-01T15:59:35.972Z,4.67
2018-09-01T16:00:39.389Z,4.50
2018-09-01T16:01:42.854Z,10.13
2018-09-01T16:02:46.739Z,3.50
2018-09-01T16:03:50.322Z,6.97
2018-09-01T16:04:53.697Z,6.67
2018-09-01T16:05:57.241Z,5.47
2018-09-01T16:07:00.890Z,4.43
2018-09-01T16:08:04.574Z,7.20
2018-09-01T16:09:08.011Z,2.33
2018-09-01T16:10:11.493Z,5.20
2018-09-01T16:11:14.932Z,6.57
2018-09-01T16:12:18.408Z,4.83
2018-09-01T16:13:21.761Z,5.58
2018-09-01T16:14:25.320Z,4.37
2018-09-01T16:15:28.819Z,6.43
2018-09-01T16:16:32.323Z,4.80
2018-09-01T16:17:35.731Z,9.73
2018-09-01T16:18:39.027Z,3.10
2018-09-01T16:19:42.485Z,6.10
2018-09-01T16:20:45.976Z,3.83
2018-09-01T16:21:49.520Z,5.97
2018-09-01T16:22:53.180Z,4.90
2018-09-01T16:23:56.646Z,4.63
2018-09-01T16:24:59.993Z,3.77
2018-09-01T16:26:03.563Z,3.63
2018-09-01T16:27:07.023Z,3.80
2018-09-01T16:28:10.481Z,4.67
2018-09-01T16:29:13.980Z,4.40
2018-09-01T16:30:17.530Z,4.30
2018-09-01T16:31:20.958Z,3.53
2018-09-01T16:32:24.308Z,3.87
2018-09-01T16:33:27.812Z,4.50
2018-09-01T16:34:31.440Z,6.07
2018-09-01T16:35:34.794Z,2.47
2018-09-01T16:36:38.358Z,5.47
2018-09-01T16:37:41.972Z,5.43
2018-09-01T16:38:45.396Z,6.97
2018-09-01T16:39:49.024Z,7.67
2018-09-01T16:40:52.710Z,3.17
2018-09-01T16:41:56.016Z,3.90
2018-09-01T16:42:59.672Z,7.20
2018-09-01T16:44:03.026Z,5.07
2018-09-01T16:45:06.783Z,3.77
2018-09-01T16:46:10.346Z,3.70
2018-09-01T16:47:13.691Z,4.47
2018-09-01T16:48:17.220Z,4.67
2018-09-01T16:49:20.916Z,5.43
2018-09-01T16:50:24.539Z,4.43
2018-09-01T16:51:27.963Z,6.47
2018-09-01T16:52:31.451Z,3.33
2018-09-01T16:53:34.943Z,3.27
2018-09-01T16:54:38.323Z,4.80
2018-09-01T16:55:41.655Z,3.83
2018-09-01T16:56:45.332Z,3.63
2018-09-01T16:57:48.765Z,4.30
2018-09-01T16:58:52.363Z,3.23
2018-09-01T16:59:55.736Z,6.20
2018-09-01T17:00:59.394Z,13.30
2018-09-01T17:02:02.790Z,5.73
2018-09-01T17:03:06.305Z,6.47
2018-09-01T17:04:09.875Z,5.03
2018-09-01T17:05:13.442Z,4.60
2018-09-01T17:06:17.032Z,5.53
2018-09-01T17:07:20.638Z,9.37
2018-09-01T17:08:23.994Z,7.73
2018-09-01T17:09:28.005Z,6.60
2018-09-01T17:10:31.413Z,4.97
2018-09-01T17:11:35.027Z,8.63
2018-09-01T17:12:38.840Z,5.30
2018-09-01T17:13:42.479Z,3.70
2018-09-01T17:14:46.358Z,5.87
2018-09-01T17:15:49.834Z,3.60
2018-09-01T17:16:53.353Z,5.63
2018-09-01T17:17:57.006Z,5.00
2018-09-01T17:19:00.630Z,4.57
2018-09-01T17:20:04.878Z,4.60
2018-09-01T17:21:08.236Z,5.70
2018-09-01T17:22:11.929Z,3.67
2018-09-01T17:23:15.471Z,5.43
2018-09-01T17:24:18.966Z,3.65
2018-09-01T17:25:22.308Z,3.50
2018-09-01T17:26:25.737Z,4.03
2018-09-01T17:27:29.340Z,4.30
2018-09-01T17:28:32.729Z,3.70
2018-09-01T17:29:36.515Z,5.97
2018-09-01T17:30:40.048Z,5.37
2018-09-01T17:31:43.534Z,5.07
2018-09-01T17:32:47.026Z,4.67
2018-09-01T17:33:50.611Z,3.63
2018-09-01T17:34:53.992Z,5.63
2018-09-01T17:35:57.578Z,4.50
2018-09-01T17:37:01.060Z,5.90
2018-09-01T17:38:04.615Z,5.33
2018-09-01T17:39:11.801Z,4.00
2018-09-01T17:40:15.352Z,4.67
2018-09-01T17:41:18.679Z,5.23
2018-09-01T17:42:22.061Z,5.97
2018-09-01T17:43:25.396Z,5.13
2018-09-01T17:44:28.772Z,4.13
2018-09-01T17:45:32.107Z,6.83
2018-09-01T17:46:35.661Z,5.10
2018-09-01T17:47:39.079Z,7.80
2018-09-01T17:48:42.432Z,6.37
2018-09-01T17:49:45.866Z,5.03
2018-09-01T17:50:49.586Z,8.40
2018-09-01T17:51:53.139Z,5.50
2018-09-01T17:52:56.804Z,5.33
2018-09-01T17:54:00.413Z,6.07
2018-09-01T17:55:04.214Z,5.17
2018-09-01T17:56:07.684Z,5.80
2018-09-01T17:57:11.528Z,6.10
2018-09-01T17:58:15.187Z,4.73
2018-09-01T17:59:18.675Z,5.23
2018-09-01T18:00:22.396Z,4.67
2018-09-01T18:01:26.897Z,5.27
2018-09-01T18:02:30.604Z,6.47
2018-09-01T18:03:34.267Z,4.77
2018-09-01T18:04:37.718Z,6.10
2018-09-01T18:05:41.108Z,6.07
2018-09-01T18:06:44.833Z,7.73
2018-09-01T18:07:48.371Z,5.53
2018-09-01T18:08:51.953Z,4.57
2018-09-01T18:09:55.525Z,4.93
2018-09-01T18:10:59.207Z,5.87
2018-09-01T18:12:02.894Z,5.33
2018-09-01T18:13:06.464Z,5.57
2018-09-01T18:14:10.024Z,6.57
2018-09-01T18:15:14.169Z,5.60
2018-09-01T18:16:17.695Z,5.33
2018-09-01T18:17:21.311Z,7.00
2018-09-01T18:18:24.956Z,7.50
2018-09-01T18:19:28.517Z,7.07
2018-09-01T18:20:31.984Z,4.20
2018-09-01T18:21:35.368Z,5.80
2018-09-01T18:22:38.872Z,4.60
2018-09-01T18:23:42.660Z,8.43
2018-09-01T18:24:46.135Z,5.57
2018-09-01T18:25:49.622Z,5.53
2018-09-01T18:26:53.029Z,5.57
2018-09-01T18:27:56.865Z,7.00
2018-09-01T18:29:00.790Z,4.53
2018-09-01T18:30:05.725Z,5.50
2018-09-01T18:31:09.399Z,4.77
2018-09-01T18:32:12.953Z,6.17
2018-09-01T18:33:16.526Z,5.37
2018-09-01T18:34:19.983Z,7.43
2018-09-01T18:35:23.776Z,8.83
2018-09-01T18:36:27.580Z,6.97
2018-09-01T18:37:31.283Z,7.57
2018-09-01T18:38:34.982Z,12.23
2018-09-01T18:39:38.644Z,9.70
2018-09-01T18:40:42.368Z,10.00
2018-09-01T18:41:45.879Z,10.37
2018-09-01T18:42:49.305Z,8.37
2018-09-01T18:43:54.057Z,8.83
2018-09-01T18:44:58.714Z,8.90
2018-09-01T18:46:02.145Z,6.80
2018-09-01T18:47:06.240Z,11.70
2018-09-01T18:48:09.803Z,11.33
2018-09-01T18:49:13.365Z,12.93
2018-09-01T18:50:16.914Z,7.37
2018-09-01T18:51:20.777Z,9.40
2018-09-01T18:52:24.366Z,11.13
2018-09-01T18:53:27.920Z,8.43
2018-09-01T18:54:31.439Z,9.27
2018-09-01T18:55:34.885Z,10.77
2018-09-01T18:56:38.497Z,9.43
2018-09-01T18:57:41.921Z,9.00
2018-09-01T18:58:45.257Z,11.80
2018-09-01T18:59:48.824Z,6.50
2018-09-01T19:00:52.316Z,7.93
2018-09-01T19:01:55.834Z,9.20
2018-09-01T19:03:00.482Z,37.13
2018-09-01T19:04:03.925Z,25.13
2018-09-01T19:05:07.418Z,26.33
2018-09-01T19:06:10.800Z,90.07
2018-09-01T19:07:14.395Z,226.67
2018-09-01T19:08:17.948Z,170.23
2018-09-01T19:09:21.680Z,149.27
2018-09-01T19:10:25.066Z,164.40
2018-09-01T19:11:28.497Z,223.37
2018-09-01T19:12:31.939Z,164.27
2018-09-01T19:13:35.664Z,157.30
2018-09-01T19:14:39.166Z,163.00
2018-09-01T19:15:42.867Z,201.47
2018-09-01T19:16:46.595Z,206.47
2018-09-01T19:17:50.278Z,113.87
2018-09-01T19:18:53.794Z,135.07
2018-09-01T19:19:57.270Z,108.87
2018-09-01T19:21:00.904Z,105.33
2018-09-01T19:22:04.400Z,136.63
2018-09-01T19:23:07.990Z,88.97
2018-09-01T19:24:11.554Z,103.07
2018-09-01T19:25:15.130Z,116.87
2018-09-01T19:26:18.622Z,130.33
2018-09-01T19:27:22.603Z,142.13
2018-09-01T19:28:26.154Z,142.70
2018-09-01T19:29:29.868Z,133.40
2018-09-01T19:30:33.422Z,151.23
2018-09-01T19:31:37.265Z,108.53
2018-09-01T19:32:40.867Z,99.00
2018-09-01T19:33:44.497Z,86.77
2018-09-01T19:34:48.302Z,89.37
2018-09-01T19:35:51.946Z,74.27
2018-09-01T19:36:56.201Z,59.63
2018-09-01T19:37:59.511Z,57.13
2018-09-01T19:39:06.148Z,44.17
2018-09-01T19:40:10.617Z,33.37
2018-09-01T19:41:14.320Z,44.30
2018-09-01T19:42:18.165Z,47.90
2018-09-01T19:43:21.691Z,36.97
2018-09-01T19:44:25.255Z,24.17
2018-09-01T19:45:29.096Z,21.67
2018-09-01T19:46:32.579Z,18.40
2018-09-01T19:47:36.288Z,15.13
2018-09-01T19:48:39.926Z,16.47
2018-09-01T19:49:43.487Z,17.63
2018-09-01T19:50:47.053Z,11.13
2018-09-01T19:51:50.565Z,16.03
2018-09-01T19:52:54.144Z,27.47